Terminal Aerodrome Forecast
Issued by NWS

Home | Current Version | Previous Version | Text Only | Print | Product List | Glossary On
Versions: 1 2 3 4 5 6 7 8 9 10 11 12 13
000
FTUS43 KDTX 161720
TAFMBS
TAF
KMBS 161720Z 1618/1718 18004KT 5SM BR SCT060 OVC100
      TEMPO 1619/1622 2SM -SNPL OVC060
     FM162200 12005KT 1 1/2SM -SNPL BKN025 OVC040
     FM170000 11006KT 2SM -FZRA BR OVC020
     FM170700 08010KT 2SM RA BR OVC008
     FM171400 07006KT 3/4SM -SHRA BR OVC003=

USA.gov is the U.S. government's official web portal to all federal, state and local government web resources and services.